createdAt,value
2023-04-15T00:00:59.814Z,41.40
2023-04-15T00:03:27.186Z,41.20
2023-04-15T00:05:54.339Z,41.10
2023-04-15T00:08:21.082Z,41.20
2023-04-15T00:10:49.402Z,41.40
2023-04-15T00:13:16.565Z,41.50
2023-04-15T00:15:43.496Z,41.50
2023-04-15T00:18:10.374Z,41.70
2023-04-15T00:20:37.571Z,41.50
2023-04-15T00:23:04.570Z,41.80
2023-04-15T00:37:48.439Z,42.20
2023-04-15T00:40:18.818Z,42.80
2023-04-15T00:42:45.773Z,42.80
2023-04-15T00:45:12.993Z,42.70
2023-04-15T00:47:42.926Z,43.10
2023-04-15T00:50:11.056Z,42.80
2023-04-15T00:52:37.890Z,42.90
2023-04-15T00:55:05.512Z,43.20
2023-04-15T00:57:33.107Z,43.50
2023-04-15T01:00:01.049Z,43.20
2023-04-15T01:02:28.161Z,43.50
2023-04-15T01:04:56.415Z,43.20
2023-04-15T01:07:23.178Z,43.50
2023-04-15T01:09:51.273Z,43.80
2023-04-15T01:12:20.477Z,43.70
2023-04-15T01:14:47.194Z,43.50
2023-04-15T01:17:14.518Z,44.20
2023-04-15T01:19:42.333Z,44.00
2023-04-15T01:22:09.554Z,44.00
2023-04-15T01:24:37.601Z,43.50
2023-04-15T01:27:05.380Z,43.40
2023-04-15T01:29:38.332Z,43.70
2023-04-15T01:32:05.787Z,43.60
2023-04-15T01:34:35.010Z,43.70
2023-04-15T01:37:02.337Z,43.70
2023-04-15T01:39:29.069Z,43.80
2023-04-15T01:41:55.773Z,43.80
2023-04-15T01:44:22.689Z,43.60
2023-04-15T01:46:49.512Z,43.60
2023-04-15T01:49:16.968Z,44.10
2023-04-15T01:51:43.833Z,44.40
2023-04-15T01:54:10.482Z,44.60
2023-04-15T01:56:37.393Z,44.90
2023-04-15T01:59:04.059Z,44.80
2023-04-15T02:01:30.880Z,44.90
2023-04-15T02:03:58.028Z,44.90
2023-04-15T02:06:25.429Z,44.90
2023-04-15T02:08:52.108Z,45.10
2023-04-15T02:11:19.747Z,45.30
2023-04-15T02:13:46.425Z,45.40
2023-04-15T02:16:17.789Z,45.50
2023-04-15T02:18:47.086Z,45.50
2023-04-15T02:21:14.718Z,45.60
2023-04-15T02:23:41.558Z,45.70
2023-04-15T02:26:08.315Z,45.60
2023-04-15T02:28:35.055Z,45.50
2023-04-15T02:31:09.567Z,45.60
2023-04-15T02:33:37.058Z,45.70
2023-04-15T02:36:04.303Z,45.90
2023-04-15T02:38:31.985Z,46.10
2023-04-15T02:40:58.703Z,46.40
2023-04-15T02:43:26.512Z,46.30
2023-04-15T02:45:53.407Z,46.40
2023-04-15T02:48:20.598Z,46.60
2023-04-15T02:50:48.079Z,46.60
2023-04-15T02:53:14.882Z,46.70
2023-04-15T02:55:42.809Z,46.60
2023-04-15T02:58:09.631Z,46.80
2023-04-15T03:00:36.494Z,46.80
2023-04-15T03:03:05.675Z,47.00
2023-04-15T03:05:32.720Z,47.30
2023-04-15T03:08:01.054Z,47.30
2023-04-15T03:10:27.937Z,47.20
2023-04-15T03:12:54.586Z,47.20
2023-04-15T03:15:21.336Z,47.30
2023-04-15T03:17:49.562Z,47.40
2023-04-15T03:20:17.030Z,47.60
2023-04-15T03:22:43.985Z,47.70
2023-04-15T03:25:10.714Z,47.80
2023-04-15T03:27:38.494Z,47.90
2023-04-15T03:30:06.594Z,48.00
2023-04-15T03:37:27.712Z,48.00
2023-04-15T03:39:54.443Z,48.50
2023-04-15T03:42:21.200Z,48.50
2023-04-15T03:44:47.899Z,48.40
2023-04-15T03:47:14.586Z,48.50
2023-04-15T03:49:41.423Z,48.50
2023-04-15T03:52:08.186Z,48.50
2023-04-15T03:54:34.876Z,48.70
2023-04-15T03:57:01.733Z,48.70
2023-04-15T04:01:55.631Z,48.70
2023-04-15T04:04:22.525Z,48.90
2023-04-15T04:06:49.285Z,48.80
2023-04-15T04:09:16.209Z,49.00
2023-04-15T04:11:42.849Z,49.30
2023-04-15T04:14:09.491Z,49.30
2023-04-15T04:16:36.351Z,49.40
2023-04-15T04:19:03.281Z,49.50
2023-04-15T04:21:30.784Z,49.70
2023-04-15T04:23:57.503Z,49.70
2023-04-15T04:26:24.244Z,49.70
2023-04-15T04:28:50.879Z,49.90
2023-04-15T04:31:17.626Z,49.80
2023-04-15T04:33:44.331Z,49.80
2023-04-15T04:36:11.018Z,49.80
2023-04-15T04:38:37.671Z,50.10
2023-04-15T04:41:04.490Z,50.10
2023-04-15T04:43:31.317Z,50.30
2023-04-15T04:45:58.063Z,50.40
2023-04-15T04:48:24.778Z,50.70
2023-04-15T04:50:51.454Z,51.00
2023-04-15T04:53:18.253Z,51.20
2023-04-15T04:55:46.129Z,51.30
2023-04-15T04:58:12.860Z,51.50
2023-04-15T05:00:40.691Z,51.70
2023-04-15T05:03:07.593Z,51.80
2023-04-15T05:05:35.821Z,51.90
2023-04-15T05:08:02.835Z,52.00
2023-04-15T05:10:29.842Z,52.10
2023-04-15T05:12:57.776Z,52.20
2023-04-15T05:15:24.759Z,52.50
2023-04-15T05:17:51.709Z,52.40
2023-04-15T05:20:18.504Z,52.60
2023-04-15T05:22:45.228Z,52.70
2023-04-15T05:25:12.001Z,52.70
2023-04-15T05:27:38.683Z,52.70
2023-04-15T05:30:05.983Z,52.80
2023-04-15T05:32:32.653Z,52.70
2023-04-15T05:34:59.519Z,52.70
2023-04-15T05:37:26.303Z,52.70
2023-04-15T05:39:53.511Z,52.70
2023-04-15T05:42:23.059Z,52.70
2023-04-15T05:44:49.735Z,52.70
2023-04-15T05:47:16.625Z,52.80
2023-04-15T05:49:43.440Z,52.80
2023-04-15T05:52:10.328Z,52.80
2023-04-15T05:54:38.958Z,52.80
2023-04-15T05:57:05.763Z,52.80
2023-04-15T05:59:32.697Z,52.80
2023-04-15T06:01:59.479Z,52.80
2023-04-15T06:04:26.432Z,52.90
2023-04-15T06:06:53.268Z,53.10
2023-04-15T06:09:20.183Z,53.20
2023-04-15T06:11:46.914Z,53.30
2023-04-15T06:14:13.569Z,53.30
2023-04-15T06:16:40.351Z,53.40
2023-04-15T06:19:07.134Z,53.40
2023-04-15T06:21:33.967Z,53.50
2023-04-15T06:24:03.867Z,53.50
2023-04-15T06:26:31.226Z,53.70
2023-04-15T06:28:58.084Z,53.90
2023-04-15T06:31:24.853Z,54.10
2023-04-15T06:33:51.591Z,54.40
2023-04-15T06:36:18.444Z,54.50
2023-04-15T06:38:45.502Z,54.60
2023-04-15T06:41:12.406Z,54.70
2023-04-15T06:43:39.882Z,54.80
2023-04-15T06:46:07.017Z,55.00
2023-04-15T06:48:33.887Z,55.20
2023-04-15T06:51:00.585Z,55.40
2023-04-15T06:53:28.102Z,55.40
2023-04-15T06:55:55.032Z,55.60
2023-04-15T06:58:22.066Z,55.80
2023-04-15T07:00:49.149Z,55.90
2023-04-15T07:03:16.093Z,56.10
2023-04-15T07:05:43.415Z,56.40
2023-04-15T07:08:10.317Z,56.50
2023-04-15T07:10:37.135Z,56.60
2023-04-15T07:13:05.740Z,56.70
2023-04-15T07:15:32.395Z,56.80
2023-04-15T07:17:59.206Z,56.80
2023-04-15T07:20:26.180Z,56.70
2023-04-15T07:22:53.184Z,56.70
2023-04-15T07:25:20.151Z,56.30
2023-04-15T07:27:47.402Z,56.40
2023-04-15T07:30:14.462Z,56.30
2023-04-15T07:32:42.177Z,56.20
2023-04-15T07:35:09.854Z,56.30
2023-04-15T07:37:36.629Z,56.20
2023-04-15T07:40:04.991Z,56.10
2023-04-15T07:42:31.739Z,56.10
2023-04-15T07:44:58.520Z,55.90
2023-04-15T07:47:25.750Z,55.90
2023-04-15T07:49:52.734Z,56.30
2023-04-15T07:52:19.470Z,55.50
2023-04-15T07:54:46.311Z,55.40
2023-04-15T07:57:13.191Z,54.80
2023-04-15T07:59:40.046Z,54.20
2023-04-15T08:04:35.524Z,54.10
2023-04-15T08:09:29.845Z,54.20
2023-04-15T08:34:07.930Z,53.40
2023-04-15T08:36:34.981Z,52.10
2023-04-15T08:39:02.331Z,51.90
2023-04-15T08:46:37.309Z,52.00
2023-04-15T08:49:05.405Z,50.40
2023-04-15T08:51:33.652Z,50.50
2023-04-15T08:54:01.569Z,50.40
2023-04-15T12:58:33.512Z,52.10
2023-04-15T13:01:00.371Z,46.80
2023-04-15T13:03:27.246Z,46.10
2023-04-15T17:54:31.570Z,46.80
2023-04-15T17:56:59.426Z,46.80
2023-04-15T17:59:26.465Z,47.10
2023-04-15T18:01:53.258Z,46.90
2023-04-15T18:04:20.097Z,47.10
2023-04-15T18:06:47.155Z,48.00
2023-04-15T18:09:13.906Z,47.40
2023-04-15T18:11:40.978Z,47.50
2023-04-15T18:14:07.935Z,47.40
2023-04-15T18:16:34.777Z,47.80
2023-04-15T18:19:01.856Z,47.80
2023-04-15T18:21:29.623Z,47.80
2023-04-15T18:23:56.427Z,48.00
2023-04-15T18:26:24.162Z,48.00
2023-04-15T18:28:50.886Z,48.00
2023-04-15T18:31:17.714Z,48.40
2023-04-15T18:33:44.484Z,48.30
2023-04-15T18:36:12.201Z,48.10
2023-04-15T18:38:39.011Z,47.60
2023-04-15T18:41:07.173Z,48.10
2023-04-15T18:43:35.524Z,47.80
2023-04-15T18:46:03.815Z,47.80
2023-04-15T18:48:30.574Z,47.70
2023-04-15T18:50:58.463Z,47.60
2023-04-15T18:53:27.049Z,47.60
2023-04-15T18:55:53.847Z,47.80
2023-04-15T18:58:20.599Z,49.30
2023-04-15T19:00:48.331Z,48.20
2023-04-15T19:03:15.674Z,47.60
2023-04-15T19:05:42.514Z,47.70
2023-04-15T19:08:10.231Z,48.10
2023-04-15T19:10:38.305Z,47.80
2023-04-15T19:13:05.085Z,47.90
2023-04-15T19:15:31.829Z,48.20
2023-04-15T19:17:58.537Z,48.10
2023-04-15T19:20:25.389Z,48.10
2023-04-15T19:22:54.054Z,48.90
2023-04-15T19:25:20.642Z,48.70
2023-04-15T19:27:47.408Z,49.70
2023-04-15T19:30:14.353Z,49.00
2023-04-15T19:32:41.114Z,49.10
2023-04-15T19:35:10.029Z,49.10
2023-04-15T19:37:38.188Z,49.60
2023-04-15T19:40:05.391Z,49.50
2023-04-15T19:42:32.209Z,49.60
2023-04-15T19:44:59.970Z,50.00
2023-04-15T19:47:28.054Z,50.00
2023-04-15T19:49:54.758Z,49.90
2023-04-15T19:52:22.371Z,50.00
2023-04-15T19:54:49.267Z,49.70
2023-04-15T19:57:16.043Z,49.50
2023-04-15T19:59:42.752Z,49.80
2023-04-15T20:02:09.720Z,49.60
2023-04-15T20:04:36.688Z,49.60
2023-04-15T20:07:03.478Z,49.60
2023-04-15T20:09:31.228Z,49.70
2023-04-15T20:12:48.262Z,49.50
2023-04-15T20:14:44.737Z,49.30
2023-04-15T20:17:11.605Z,49.60
2023-04-15T20:19:38.459Z,49.80
2023-04-15T20:22:05.197Z,49.80
2023-04-15T20:24:32.986Z,49.80
2023-04-15T20:26:59.632Z,49.90
2023-04-15T20:29:26.485Z,49.80
2023-04-15T20:31:53.205Z,49.90
2023-04-15T20:34:19.829Z,49.60
2023-04-15T20:36:47.648Z,49.50
2023-04-15T20:39:14.328Z,50.20
2023-04-15T20:41:41.083Z,50.00
2023-04-15T20:44:07.885Z,49.50
2023-04-15T20:46:34.562Z,49.70
2023-04-15T20:49:01.301Z,49.90
2023-04-15T20:51:27.963Z,49.90
2023-04-15T20:53:55.541Z,50.10
2023-04-15T20:56:22.308Z,50.00
2023-04-15T20:58:48.999Z,49.90
2023-04-15T21:01:15.813Z,50.10
2023-04-15T21:03:42.626Z,50.10
2023-04-15T21:06:09.401Z,49.80
2023-04-15T21:08:36.156Z,49.80
2023-04-15T21:13:29.959Z,50.30
2023-04-15T21:21:01.322Z,50.70
2023-04-15T21:23:29.681Z,51.50
2023-04-15T21:25:57.269Z,51.70
2023-04-15T21:28:27.877Z,52.00
2023-04-15T21:30:54.652Z,52.30
2023-04-15T21:33:22.632Z,52.50
2023-04-15T21:35:49.356Z,52.80
2023-04-15T21:38:16.019Z,53.00
2023-04-15T21:40:43.780Z,53.30
2023-04-15T21:43:10.683Z,53.60
2023-04-15T21:45:39.405Z,54.00
2023-04-15T21:48:08.278Z,54.20
2023-04-15T21:50:38.452Z,54.40
2023-04-15T21:53:08.358Z,55.00
2023-04-15T21:55:36.334Z,55.20
2023-04-15T22:00:30.235Z,55.40
2023-04-15T22:02:57.056Z,55.60
2023-04-15T22:05:25.219Z,55.70
2023-04-15T22:07:51.875Z,55.90
2023-04-15T22:10:19.462Z,56.00
2023-04-15T22:12:46.258Z,56.10
2023-04-15T22:15:12.942Z,56.30
2023-04-15T22:17:39.733Z,56.40
2023-04-15T22:22:44.344Z,56.60
2023-04-15T22:25:12.291Z,56.70
2023-04-15T22:27:38.994Z,57.50
2023-04-15T22:30:06.400Z,57.10
2023-04-15T22:32:33.096Z,57.10
2023-04-15T22:35:00.098Z,57.20
2023-04-15T22:37:30.422Z,57.40
2023-04-15T22:39:57.516Z,57.70
2023-04-15T22:42:24.278Z,57.90
2023-04-15T22:44:51.638Z,58.10
2023-04-15T22:47:19.137Z,58.30
2023-04-15T22:49:45.983Z,58.40
2023-04-15T22:52:23.395Z,58.40
2023-04-15T22:54:56.524Z,58.60
2023-04-15T22:57:23.218Z,58.80
2023-04-15T22:59:49.929Z,59.00
2023-04-15T23:02:17.039Z,59.10
2023-04-15T23:04:44.052Z,59.40
2023-04-15T23:07:11.128Z,59.50
2023-04-15T23:09:38.869Z,59.60
2023-04-15T23:14:33.216Z,59.70
2023-04-15T23:16:59.896Z,60.00
2023-04-15T23:19:26.529Z,60.10
2023-04-15T23:21:53.505Z,60.30
2023-04-15T23:24:20.213Z,60.40
2023-04-15T23:26:46.886Z,61.00
2023-04-15T23:29:14.094Z,60.50
2023-04-15T23:31:41.778Z,60.50
2023-04-15T23:34:08.645Z,60.70
2023-04-15T23:36:35.399Z,60.80
2023-04-15T23:39:02.140Z,60.90
2023-04-15T23:41:28.828Z,60.90
2023-04-15T23:43:55.792Z,61.00
2023-04-15T23:46:22.539Z,61.10
2023-04-15T23:48:49.710Z,61.20
2023-04-15T23:51:16.577Z,61.50
2023-04-15T23:53:43.290Z,61.50
2023-04-15T23:56:11.111Z,61.60
2023-04-15T23:58:37.821Z,61.80
